createdAt,value
2023-01-30T00:01:24.513Z,89.50
2023-01-30T00:03:51.711Z,89.40
2023-01-30T00:06:18.915Z,89.50
2023-01-30T00:08:46.049Z,89.50
2023-01-30T00:11:13.780Z,89.40
2023-01-30T00:13:41.282Z,89.40
2023-01-30T00:16:09.738Z,89.60
2023-01-30T00:18:37.503Z,89.50
2023-01-30T00:21:05.664Z,89.50
2023-01-30T00:23:33.054Z,89.50
2023-01-30T00:26:00.558Z,89.50
2023-01-30T00:28:27.878Z,89.50
2023-01-30T00:30:55.212Z,89.50
2023-01-30T00:33:24.713Z,89.60
2023-01-30T00:35:52.928Z,89.60
2023-01-30T00:38:20.123Z,89.60
2023-01-30T00:40:48.298Z,89.60
2023-01-30T00:43:34.226Z,89.60
2023-01-30T00:46:20.958Z,89.60
2023-01-30T00:48:47.817Z,89.60
2023-01-30T00:51:14.681Z,89.60
2023-01-30T00:53:41.609Z,89.60
2023-01-30T00:56:08.346Z,89.60
2023-01-30T00:58:35.413Z,89.60
2023-01-30T01:01:04.230Z,89.60
2023-01-30T01:03:31.143Z,89.70
2023-01-30T01:05:58.203Z,89.70
2023-01-30T01:08:25.454Z,89.70
2023-01-30T01:10:52.745Z,89.70
2023-01-30T01:13:19.488Z,90.30
2023-01-30T01:15:47.316Z,89.70
2023-01-30T01:18:14.400Z,89.80
2023-01-30T01:20:41.841Z,89.80
2023-01-30T01:23:10.095Z,89.80
2023-01-30T01:25:36.967Z,89.90
2023-01-30T01:28:21.785Z,89.90
2023-01-30T01:31:37.884Z,89.90
2023-01-30T01:34:31.353Z,90.00
2023-01-30T01:37:15.898Z,90.00
2023-01-30T01:40:38.258Z,89.90
2023-01-30T01:43:20.150Z,90.00
2023-01-30T01:45:48.885Z,90.00
2023-01-30T01:48:27.642Z,90.00
2023-01-30T01:51:11.502Z,90.00
2023-01-30T01:53:44.069Z,90.00
2023-01-30T01:56:16.910Z,90.00
2023-01-30T01:58:49.541Z,90.00
2023-01-30T02:01:38.947Z,90.00
2023-01-30T02:04:10.557Z,90.00
2023-01-30T02:06:46.398Z,90.00
2023-01-30T02:09:15.034Z,90.00
2023-01-30T02:11:47.649Z,90.10
2023-01-30T02:14:15.861Z,90.10
2023-01-30T02:16:44.699Z,90.10
2023-01-30T02:19:22.843Z,90.10
2023-01-30T02:22:10.157Z,90.10
2023-01-30T02:25:50.024Z,90.10
2023-01-30T02:28:19.800Z,90.20
2023-01-30T02:31:03.767Z,90.20
2023-01-30T02:33:36.636Z,90.20
2023-01-30T02:36:05.643Z,90.20
2023-01-30T02:38:40.531Z,90.20
2023-01-30T02:41:11.819Z,90.20
2023-01-30T02:44:02.796Z,90.30
2023-01-30T02:46:42.755Z,90.30
2023-01-30T02:49:49.665Z,90.30
2023-01-30T02:57:06.254Z,90.40
2023-01-30T03:00:07.907Z,90.40
2023-01-30T03:02:45.068Z,90.40
2023-01-30T03:08:39.290Z,90.50
2023-01-30T03:11:17.504Z,90.40
2023-01-30T03:14:50.275Z,90.40
2023-01-30T03:17:38.165Z,90.40
2023-01-30T03:20:05.970Z,90.50
2023-01-30T03:22:32.873Z,90.50
2023-01-30T03:24:59.753Z,90.50
2023-01-30T03:27:26.909Z,90.50
2023-01-30T03:29:53.907Z,90.50
2023-01-30T03:32:21.290Z,90.50
2023-01-30T03:34:48.151Z,90.60
2023-01-30T03:42:50.011Z,90.60
2023-01-30T03:45:17.525Z,90.60
2023-01-30T03:47:47.565Z,90.60
2023-01-30T03:50:15.972Z,90.60
2023-01-30T03:52:46.952Z,90.60
2023-01-30T03:55:18.437Z,90.70
2023-01-30T03:57:45.709Z,90.70
2023-01-30T04:00:15.757Z,90.70
2023-01-30T04:02:49.212Z,90.70
2023-01-30T04:05:18.474Z,90.70
2023-01-30T04:07:51.294Z,90.70
2023-01-30T04:10:19.934Z,90.70
2023-01-30T04:12:46.993Z,90.70
2023-01-30T04:15:14.011Z,90.80
2023-01-30T04:17:52.204Z,90.80
2023-01-30T04:20:39.119Z,90.80
2023-01-30T04:23:06.861Z,90.80
2023-01-30T04:25:33.841Z,90.80
2023-01-30T04:28:02.905Z,90.80
2023-01-30T04:30:38.065Z,90.80
2023-01-30T04:33:25.316Z,90.80
2023-01-30T04:35:54.210Z,90.80
2023-01-30T04:38:21.895Z,90.80
2023-01-30T04:40:59.455Z,90.80
2023-01-30T04:43:30.712Z,90.80
2023-01-30T04:46:17.207Z,90.80
2023-01-30T04:48:46.280Z,90.80
2023-01-30T04:51:13.447Z,90.90
2023-01-30T04:53:41.117Z,90.80
2023-01-30T04:56:09.528Z,90.90
2023-01-30T04:58:36.607Z,90.90
2023-01-30T05:01:22.553Z,90.90
2023-01-30T05:03:50.393Z,90.90
2023-01-30T05:06:17.231Z,90.90
2023-01-30T05:08:46.741Z,90.90
2023-01-30T05:11:13.781Z,90.90
2023-01-30T05:13:40.499Z,91.00
2023-01-30T05:16:07.529Z,90.90
2023-01-30T05:18:34.363Z,90.90
2023-01-30T05:21:20.522Z,90.90
2023-01-30T05:23:47.289Z,91.00
2023-01-30T05:26:14.508Z,91.00
2023-01-30T05:28:41.762Z,91.00
2023-01-30T05:31:10.197Z,91.00
2023-01-30T05:33:37.795Z,91.00
2023-01-30T05:36:05.037Z,91.00
2023-01-30T05:38:31.933Z,91.00
2023-01-30T05:41:00.265Z,91.00
2023-01-30T05:43:27.351Z,91.10
2023-01-30T05:45:54.943Z,91.10
2023-01-30T05:48:23.528Z,91.10
2023-01-30T05:50:52.532Z,91.10
2023-01-30T05:53:20.148Z,91.10
2023-01-30T05:55:46.983Z,91.00
2023-01-30T05:58:13.943Z,91.10
2023-01-30T06:00:41.042Z,91.10
2023-01-30T06:03:07.848Z,91.20
2023-01-30T06:05:37.398Z,91.20
2023-01-30T06:08:04.121Z,91.20
2023-01-30T06:10:30.753Z,91.10
2023-01-30T06:12:57.505Z,91.20
2023-01-30T06:15:24.277Z,91.20
2023-01-30T06:17:51.125Z,91.20
2023-01-30T06:20:18.260Z,91.20
2023-01-30T06:22:45.218Z,91.20
2023-01-30T06:25:12.296Z,91.20
2023-01-30T06:27:39.049Z,91.30
2023-01-30T06:30:05.957Z,91.30
2023-01-30T06:32:32.783Z,91.30
2023-01-30T06:35:01.829Z,91.30
2023-01-30T06:37:28.681Z,91.30
2023-01-30T06:39:55.460Z,91.30
2023-01-30T06:42:22.364Z,91.30
2023-01-30T06:44:49.320Z,91.20
2023-01-30T06:47:16.089Z,91.30
2023-01-30T06:49:42.780Z,91.30
2023-01-30T06:52:09.984Z,91.40
2023-01-30T06:54:36.764Z,91.30
2023-01-30T06:57:04.404Z,91.30
2023-01-30T06:59:31.387Z,91.30
2023-01-30T07:01:58.209Z,91.30
2023-01-30T07:04:25.171Z,91.30
2023-01-30T07:06:52.012Z,91.40
2023-01-30T07:09:18.929Z,91.40
2023-01-30T07:11:48.798Z,91.40
2023-01-30T07:14:15.756Z,91.40
2023-01-30T07:16:42.411Z,91.40
2023-01-30T07:19:09.207Z,91.40
2023-01-30T07:21:35.992Z,91.40
2023-01-30T07:24:02.794Z,91.50
2023-01-30T07:26:31.220Z,91.50
2023-01-30T07:28:58.410Z,91.50
2023-01-30T07:31:25.037Z,91.50
2023-01-30T07:33:51.703Z,91.50
2023-01-30T07:36:26.745Z,91.40
2023-01-30T07:38:53.538Z,91.50
2023-01-30T07:41:20.143Z,91.60
2023-01-30T07:43:49.062Z,91.90
2023-01-30T07:46:15.791Z,91.80
2023-01-30T07:48:44.176Z,91.80
2023-01-30T07:58:30.920Z,92.10
2023-01-30T08:00:56.454Z,92.10
2023-01-30T08:03:23.508Z,92.10
2023-01-30T08:05:50.542Z,92.00
2023-01-30T08:08:17.536Z,92.00
2023-01-30T08:10:46.670Z,91.90
2023-01-30T08:13:13.837Z,91.90
2023-01-30T08:15:40.797Z,91.80
2023-01-30T08:18:07.724Z,91.80
2023-01-30T08:20:34.907Z,91.90
2023-01-30T08:23:04.913Z,91.90
2023-01-30T08:25:36.097Z,91.90
2023-01-30T08:28:03.637Z,91.80
2023-01-30T08:30:30.784Z,92.00
2023-01-30T08:32:57.823Z,92.10
2023-01-30T08:35:24.499Z,92.20
2023-01-30T08:37:51.357Z,92.10
2023-01-30T08:40:18.234Z,92.10
2023-01-30T08:42:45.527Z,92.10
2023-01-30T08:45:12.284Z,92.00
2023-01-30T08:47:39.582Z,92.00
2023-01-30T08:50:06.330Z,92.00
2023-01-30T08:52:33.473Z,92.00
2023-01-30T08:55:00.182Z,91.90
2023-01-30T08:57:26.900Z,91.80
2023-01-30T08:59:53.557Z,91.80
2023-01-30T09:02:20.492Z,91.70
2023-01-30T09:04:47.071Z,91.70
2023-01-30T09:07:13.700Z,91.70
2023-01-30T09:09:40.360Z,91.70
2023-01-30T09:12:07.125Z,91.70
2023-01-30T09:14:34.084Z,91.80
2023-01-30T09:17:00.856Z,91.80
2023-01-30T09:19:28.261Z,91.80
2023-01-30T09:21:55.252Z,91.80
2023-01-30T09:24:26.473Z,91.80
2023-01-30T09:26:53.877Z,91.80
2023-01-30T09:29:20.549Z,91.80
2023-01-30T09:31:47.450Z,91.80
2023-01-30T09:34:14.196Z,91.70
2023-01-30T09:36:41.537Z,91.80
2023-01-30T09:39:08.162Z,91.80
2023-01-30T09:41:34.909Z,91.80
2023-01-30T09:44:17.275Z,91.80
2023-01-30T09:47:02.210Z,91.80
2023-01-30T09:49:49.236Z,91.80
2023-01-30T09:52:21.690Z,91.80
2023-01-30T09:54:48.530Z,91.70
2023-01-30T09:57:21.134Z,91.70
2023-01-30T09:59:51.927Z,91.70
2023-01-30T10:02:18.549Z,91.70
2023-01-30T10:05:00.171Z,91.70
2023-01-30T10:07:47.016Z,91.70
2023-01-30T10:10:27.637Z,91.70
2023-01-30T10:13:01.435Z,91.70
2023-01-30T10:15:34.177Z,91.70
2023-01-30T10:18:10.173Z,91.70
2023-01-30T10:20:55.746Z,91.70
2023-01-30T10:23:39.911Z,91.80
2023-01-30T10:26:11.369Z,91.70
2023-01-30T10:28:40.848Z,91.70
2023-01-30T10:31:13.586Z,91.70
2023-01-30T10:34:03.640Z,91.70
2023-01-30T10:36:46.754Z,91.70
2023-01-30T10:39:28.645Z,91.70
2023-01-30T10:41:58.855Z,91.80
2023-01-30T10:44:25.590Z,91.80
2023-01-30T10:46:52.478Z,91.90
2023-01-30T10:49:36.646Z,91.80
2023-01-30T10:52:20.215Z,91.90
2023-01-30T10:54:46.881Z,91.90
2023-01-30T10:57:28.138Z,91.90
2023-01-30T10:59:59.500Z,91.80
2023-01-30T11:02:32.368Z,91.90
2023-01-30T11:05:03.611Z,91.90
2023-01-30T11:07:31.806Z,91.90
2023-01-30T11:09:59.296Z,91.90
2023-01-30T11:12:26.140Z,91.90
2023-01-30T11:15:00.354Z,91.90
2023-01-30T11:17:37.407Z,91.90
2023-01-30T11:20:24.582Z,91.90
2023-01-30T11:23:00.118Z,91.90
2023-01-30T11:25:28.032Z,92.00
2023-01-30T11:28:02.276Z,92.10
2023-01-30T11:30:30.471Z,92.20
2023-01-30T11:33:17.705Z,92.20
2023-01-30T11:36:20.023Z,92.20
2023-01-30T11:39:07.137Z,92.20
2023-01-30T11:41:33.807Z,92.20
2023-01-30T11:44:04.671Z,92.00
2023-01-30T11:46:34.374Z,92.00
2023-01-30T11:49:31.896Z,92.00
2023-01-30T11:51:53.946Z,92.00
2023-01-30T11:54:23.767Z,91.90
2023-01-30T11:56:55.388Z,91.90
2023-01-30T11:59:22.214Z,91.70
2023-01-30T12:01:49.417Z,91.60
2023-01-30T12:04:16.277Z,91.70
2023-01-30T12:06:43.358Z,91.60
2023-01-30T12:09:32.434Z,91.60
2023-01-30T12:11:59.169Z,91.80
2023-01-30T12:14:25.861Z,91.90
2023-01-30T12:17:03.979Z,91.90
2023-01-30T12:19:36.918Z,92.00
2023-01-30T12:22:22.541Z,91.80
2023-01-30T12:24:59.122Z,92.00
2023-01-30T12:27:28.841Z,92.00
2023-01-30T12:29:58.580Z,92.10
2023-01-30T12:32:30.344Z,92.10
2023-01-30T12:34:57.288Z,92.50
2023-01-30T12:37:43.408Z,92.10
2023-01-30T12:40:10.152Z,92.30
2023-01-30T12:42:36.791Z,92.20
2023-01-30T12:45:12.651Z,92.10
2023-01-30T12:47:50.574Z,92.10
2023-01-30T12:50:23.545Z,92.00
2023-01-30T12:52:53.920Z,91.90
2023-01-30T12:55:41.041Z,92.00
2023-01-30T12:58:07.956Z,92.00
2023-01-30T13:00:53.528Z,91.90
2023-01-30T13:03:31.044Z,91.50
2023-01-30T13:06:07.225Z,91.30
2023-01-30T13:08:43.246Z,91.20
2023-01-30T13:11:30.895Z,91.20
2023-01-30T13:14:10.384Z,91.10
2023-01-30T13:17:09.603Z,91.00
2023-01-30T13:20:09.036Z,91.20
2023-01-30T13:22:59.399Z,91.10
2023-01-30T13:25:47.431Z,91.10
2023-01-30T13:28:16.406Z,90.80
2023-01-30T13:30:44.122Z,90.80
2023-01-30T13:33:13.460Z,90.80
2023-01-30T13:35:51.580Z,90.70
2023-01-30T13:38:21.027Z,90.60
2023-01-30T13:40:48.670Z,90.20
2023-01-30T13:43:19.552Z,90.30
2023-01-30T13:45:47.182Z,90.00
2023-01-30T13:48:17.025Z,88.20
2023-01-30T13:50:47.011Z,88.20
2023-01-30T13:53:32.797Z,88.70
2023-01-30T13:56:27.218Z,87.70
2023-01-30T13:59:03.203Z,87.60
2023-01-30T14:01:49.430Z,87.80
2023-01-30T14:04:35.969Z,87.20
2023-01-30T14:07:09.697Z,87.70
2023-01-30T14:09:37.225Z,85.30
2023-01-30T14:12:04.165Z,85.30
2023-01-30T14:14:33.152Z,84.60
2023-01-30T14:17:11.198Z,83.90
2023-01-30T14:19:37.866Z,84.00
2023-01-30T14:22:23.257Z,84.50
2023-01-30T14:25:08.933Z,85.40
2023-01-30T14:27:35.549Z,84.30
2023-01-30T14:30:02.245Z,84.50
2023-01-30T14:32:48.046Z,85.40
2023-01-30T14:35:20.400Z,87.90
2023-01-30T14:37:49.349Z,90.00
2023-01-30T14:40:21.943Z,90.80
2023-01-30T14:43:07.565Z,91.50
2023-01-30T14:45:53.966Z,92.00
2023-01-30T14:48:26.208Z,91.70
2023-01-30T14:51:12.229Z,91.80
2023-01-30T14:53:50.701Z,91.70
2023-01-30T14:56:18.575Z,91.70
2023-01-30T14:58:52.257Z,91.70
2023-01-30T15:01:19.041Z,91.70
2023-01-30T15:03:47.647Z,91.60
2023-01-30T15:06:14.440Z,91.50
2023-01-30T15:08:42.606Z,91.40
2023-01-30T15:11:17.551Z,91.30
2023-01-30T15:13:47.096Z,91.20
2023-01-30T15:16:19.464Z,91.10
2023-01-30T15:19:02.763Z,91.00
2023-01-30T15:21:37.177Z,90.90
2023-01-30T15:24:22.657Z,90.90
2023-01-30T15:26:52.552Z,90.80
2023-01-30T15:29:36.577Z,90.80
2023-01-30T15:32:15.196Z,90.80
2023-01-30T15:34:48.907Z,90.70
2023-01-30T15:37:34.583Z,90.60
2023-01-30T15:40:11.965Z,90.60
2023-01-30T15:42:38.763Z,90.60
2023-01-30T15:45:24.200Z,90.50
2023-01-30T15:48:01.819Z,90.50
2023-01-30T15:50:28.703Z,90.40
2023-01-30T15:52:56.618Z,90.40
2023-01-30T15:55:25.811Z,90.30
2023-01-30T15:57:54.289Z,90.30
2023-01-30T16:00:32.996Z,90.20
2023-01-30T16:03:01.164Z,90.30
2023-01-30T16:05:28.184Z,90.20
2023-01-30T16:07:55.832Z,90.20
2023-01-30T16:10:27.109Z,90.20
2023-01-30T16:12:56.147Z,90.20
2023-01-30T16:15:34.812Z,90.20
2023-01-30T16:18:20.700Z,90.20
2023-01-30T16:23:51.052Z,90.20
2023-01-30T16:26:18.355Z,90.20
2023-01-30T16:28:45.119Z,90.10
2023-01-30T16:31:12.045Z,90.10
2023-01-30T16:33:38.737Z,90.10
2023-01-30T16:36:06.791Z,90.10
2023-01-30T16:38:39.139Z,90.10
2023-01-30T16:41:06.009Z,90.10
2023-01-30T16:43:34.167Z,90.10
2023-01-30T16:46:19.817Z,90.10
2023-01-30T16:48:46.702Z,90.10
2023-01-30T16:51:31.557Z,90.20
2023-01-30T16:53:59.946Z,90.20
2023-01-30T16:56:27.722Z,90.20
2023-01-30T16:58:56.236Z,90.20
2023-01-30T17:01:24.646Z,90.20
2023-01-30T17:03:58.802Z,90.20
2023-01-30T17:06:33.077Z,90.20
2023-01-30T17:08:59.809Z,90.20
2023-01-30T17:11:36.942Z,90.20
2023-01-30T17:14:09.930Z,90.20
2023-01-30T17:16:36.608Z,90.20
2023-01-30T17:19:03.401Z,90.20
2023-01-30T17:21:34.855Z,90.20
2023-01-30T17:24:03.616Z,90.10
2023-01-30T17:26:30.574Z,90.10
2023-01-30T17:31:51.510Z,90.10
2023-01-30T17:34:19.544Z,90.10
2023-01-30T17:36:46.885Z,90.10
2023-01-30T17:39:15.327Z,90.00
2023-01-30T17:41:42.640Z,90.00
2023-01-30T17:44:09.351Z,90.00
2023-01-30T17:46:37.416Z,90.00
2023-01-30T17:49:04.265Z,89.90
2023-01-30T17:51:30.912Z,89.80
2023-01-30T17:53:57.574Z,89.80
2023-01-30T17:56:38.353Z,89.80
2023-01-30T17:59:06.240Z,89.60
2023-01-30T18:01:33.215Z,89.60
2023-01-30T18:03:59.923Z,89.40
2023-01-30T18:06:27.289Z,89.40
2023-01-30T18:08:54.063Z,89.30
2023-01-30T18:11:22.560Z,89.20
2023-01-30T18:13:49.688Z,89.20
2023-01-30T18:16:21.610Z,89.30
2023-01-30T18:18:48.708Z,89.40
2023-01-30T18:21:15.736Z,89.40
2023-01-30T18:23:42.681Z,89.40
2023-01-30T18:26:10.909Z,90.00
2023-01-30T18:28:38.011Z,89.00
2023-01-30T18:31:05.121Z,89.00
2023-01-30T18:33:32.563Z,89.10
2023-01-30T18:35:59.541Z,89.10
2023-01-30T18:38:27.886Z,89.20
2023-01-30T18:40:54.549Z,89.00
2023-01-30T18:43:22.584Z,88.70
2023-01-30T18:45:49.311Z,88.70
2023-01-30T18:48:15.976Z,88.50
2023-01-30T18:50:42.680Z,88.60
2023-01-30T18:53:09.340Z,88.60
2023-01-30T18:55:36.155Z,88.70
2023-01-30T18:58:02.791Z,88.60
2023-01-30T19:00:29.388Z,88.40
2023-01-30T19:02:56.111Z,88.20
2023-01-30T19:05:22.702Z,88.30
2023-01-30T19:07:49.300Z,88.40
2023-01-30T19:10:17.474Z,88.40
2023-01-30T19:13:04.185Z,88.40
2023-01-30T19:15:30.917Z,88.30
2023-01-30T19:17:58.200Z,89.00
2023-01-30T19:20:25.339Z,88.10
2023-01-30T19:22:54.680Z,88.20
2023-01-30T19:25:21.613Z,88.40
2023-01-30T19:27:48.339Z,88.50
2023-01-30T19:30:15.148Z,88.60
2023-01-30T19:32:41.804Z,88.60
2023-01-30T19:35:08.690Z,88.50
2023-01-30T19:37:35.968Z,88.60
2023-01-30T19:40:08.618Z,88.60
2023-01-30T19:42:35.749Z,88.70
2023-01-30T19:45:02.755Z,88.60
2023-01-30T19:47:31.204Z,88.50
2023-01-30T19:49:58.163Z,88.50
2023-01-30T19:52:24.967Z,88.60
2023-01-30T19:54:51.668Z,88.40
2023-01-30T19:57:18.514Z,88.40
2023-01-30T19:59:45.213Z,88.20
2023-01-30T20:02:12.550Z,88.20
2023-01-30T20:04:40.521Z,88.20
2023-01-30T20:07:07.260Z,88.30
2023-01-30T20:09:34.408Z,88.30
2023-01-30T20:12:01.169Z,88.40
2023-01-30T20:14:27.783Z,88.50
2023-01-30T20:16:54.517Z,88.50
2023-01-30T20:19:21.309Z,88.60
2023-01-30T20:21:48.075Z,88.60
2023-01-30T20:24:15.309Z,88.70
2023-01-30T20:26:42.470Z,88.70
2023-01-30T20:29:09.852Z,88.70
2023-01-30T20:31:38.931Z,88.80
2023-01-30T20:34:06.532Z,88.80
2023-01-30T20:36:33.727Z,89.00
2023-01-30T20:39:06.440Z,89.00
2023-01-30T20:41:35.477Z,88.90
2023-01-30T20:44:02.381Z,88.90
2023-01-30T20:46:40.775Z,89.00
2023-01-30T20:49:10.903Z,89.10
2023-01-30T20:51:37.614Z,89.10
2023-01-30T20:54:06.051Z,89.10
2023-01-30T20:56:34.221Z,89.10
2023-01-30T20:59:01.508Z,89.30
2023-01-30T21:01:28.783Z,89.30
2023-01-30T21:03:55.910Z,89.40
2023-01-30T21:06:41.914Z,89.50
2023-01-30T21:09:12.620Z,89.50
2023-01-30T21:11:39.649Z,89.60
2023-01-30T21:14:06.467Z,89.40
2023-01-30T21:16:34.518Z,89.40
2023-01-30T21:19:04.118Z,89.30
2023-01-30T21:21:32.671Z,89.30
2023-01-30T21:24:01.380Z,89.30
2023-01-30T21:26:29.170Z,89.30
2023-01-30T21:28:56.193Z,89.30
2023-01-30T21:31:24.260Z,89.30
2023-01-30T21:33:51.168Z,89.30
2023-01-30T21:36:18.280Z,89.30
2023-01-30T21:39:03.908Z,89.30
2023-01-30T21:41:56.689Z,89.30
2023-01-30T21:44:24.613Z,89.30
2023-01-30T21:46:51.252Z,89.30
2023-01-30T21:49:18.419Z,89.30
2023-01-30T21:51:46.218Z,89.30
2023-01-30T21:54:13.145Z,89.40
2023-01-30T21:56:40.146Z,89.40
2023-01-30T21:59:07.589Z,89.60
2023-01-30T22:01:35.259Z,89.60
2023-01-30T22:04:02.991Z,89.70
2023-01-30T22:06:29.694Z,89.70
2023-01-30T22:08:57.028Z,90.20
2023-01-30T22:11:23.770Z,89.80
2023-01-30T22:13:51.009Z,89.70
2023-01-30T22:16:20.574Z,89.70
2023-01-30T22:18:50.830Z,89.80
2023-01-30T22:21:19.484Z,89.80
2023-01-30T22:23:47.118Z,89.90
2023-01-30T22:26:14.691Z,89.90
2023-01-30T22:28:41.614Z,90.00
2023-01-30T22:31:09.885Z,90.00
2023-01-30T22:33:37.180Z,90.00
2023-01-30T22:36:05.081Z,90.00
2023-01-30T22:38:31.779Z,90.10
2023-01-30T22:41:00.855Z,90.00
2023-01-30T22:43:28.430Z,90.00
2023-01-30T22:46:05.705Z,90.00
2023-01-30T22:48:32.781Z,90.00
2023-01-30T22:51:07.015Z,90.00
2023-01-30T22:53:35.071Z,90.00
2023-01-30T22:56:02.679Z,90.00
2023-01-30T22:58:30.186Z,90.00
2023-01-30T23:01:03.537Z,90.00
2023-01-30T23:03:30.267Z,90.00
2023-01-30T23:06:00.883Z,90.00
2023-01-30T23:08:31.385Z,90.00
2023-01-30T23:11:08.798Z,90.00
2023-01-30T23:13:35.863Z,90.00
2023-01-30T23:16:03.447Z,90.00
2023-01-30T23:18:48.987Z,90.00
2023-01-30T23:21:16.243Z,90.00
2023-01-30T23:23:43.702Z,90.00
2023-01-30T23:26:10.984Z,90.00
2023-01-30T23:28:37.812Z,90.00
2023-01-30T23:31:05.667Z,90.00
2023-01-30T23:33:32.479Z,90.00
2023-01-30T23:36:03.391Z,90.00
2023-01-30T23:38:30.055Z,90.00
2023-01-30T23:41:04.479Z,90.00
2023-01-30T23:43:31.316Z,90.00
2023-01-30T23:45:59.111Z,90.00
2023-01-30T23:48:25.753Z,90.00
2023-01-30T23:50:52.468Z,90.00
2023-01-30T23:53:19.232Z,90.00
2023-01-30T23:55:52.656Z,90.00
2023-01-30T23:58:19.385Z,90.00
